Terminal Aerodrome Forecast
Issued by NWS Quad Cities IA IL

Home | Current Version | Previous Version | Graphics & Text | Print | Product List | Glossary On
Versions: 1 2 3 4 5 6 7 8 9 10 11 12 13 14 15 16 17 18 19 20 21 22 23 24
000
FTUS43 KDVN 261246 AAA
TAFMLI
TAF AMD
KMLI 261246Z 2613/2712 14012KT 6SM -SHRA BR SCT015 OVC050
      TEMPO 2614/2615 2SM SHRA BR BKN020
     FM261600 18012KT P6SM SCT025 BKN035
     FM261900 22013G19KT P6SM BKN040
     FM270100 23006KT P6SM SCT050 BKN250=

USA.gov is the U.S. government's official web portal to all federal, state and local government web resources and services.